Flight Track Log - Related Links

Times and Time Zones

All times are in EDT time to prevent confusion due to time zone crossing. See the TRS398 flight status page for this flight to view local times or setup timezone preferences in your user account.

Time Position Orientation Groundspeed Altitude Reporting Facility
EDT Latitude Longitude Course Direction KTS MPH feet Rate Location/Type
Fri 02:53:00 PM 28.4000 -81.3000 221° Southwest 173 199 600  Level Orlando TRACON
Fri 02:54:00 PM 28.3667 -81.3333 221° Southwest 242 278 1,700 1,785 Climbing Orlando TRACON
Fri 02:55:01 PM 28.3333 -81.4000 240° Southwest 280 322 4,200 2,579 Climbing Orlando TRACON
Fri 02:56:01 PM 28.3667 -81.4833 294° West 293 337 6,900 1,912 Climbing Orlando TRACON
Fri 02:58:03 PM 28.5267 -81.5197 349° North 304 350 10,000 1,549 Climbing Jacksonville Center
Fri 02:59:03 PM 28.6122 -81.5400 348° North 298 343 11,600 1,450 Climbing Jacksonville Center
Fri 03:00:03 PM 28.7106 -81.5575 351° North 321 369 12,900 1,550 Climbing Jacksonville Center
Fri 03:01:03 PM 28.8131 -81.5822 348° North 354 407 14,700 1,950 Climbing Jacksonville Center
Fri 03:02:03 PM 28.9219 -81.6069 349° North 382 440 16,800 1,850 Climbing Jacksonville Center
Fri 03:03:03 PM 29.0328 -81.6292 350° North 395 455 18,400 1,700 Climbing Jacksonville Center
Fri 03:04:03 PM 29.1458 -81.6564 348° North 400 460 20,200 1,750 Climbing Jacksonville Center
Fri 03:05:03 PM 29.2567 -81.6811 349° North 410 472 21,900 1,500 Climbing Jacksonville Center
Fri 03:06:03 PM 29.3717 -81.7058 349° North 410 472 23,200 1,300 Climbing Jacksonville Center
Fri 03:07:03 PM 29.4928 -81.7139 357° North 417 480 24,500 1,200 Climbing Jacksonville Center
Fri 03:08:03 PM 29.6161 -81.7197 358° North 430 495 25,600 1,000 Climbing Jacksonville Center
Fri 03:09:03 PM 29.7414 -81.7300 356° North 441 507 26,500 950 Climbing Jacksonville Center
Fri 03:10:03 PM 29.8689 -81.7358 358° North 447 514 27,500 1,050 Climbing Jacksonville Center
Fri 03:11:03 PM 29.9961 -81.7461 356° North 447 514 28,600 1,000 Climbing Jacksonville Center
Fri 03:12:03 PM 30.1089 -81.7497 358° North 447 514 29,500 1,000 Climbing Jacksonville Center
Fri 03:13:03 PM 30.2364 -81.7603 356° North 447 514 30,600 750 Climbing Jacksonville Center
Fri 03:14:03 PM 30.3639 -81.7683 357° North 452 520 31,000 200 Climbing Jacksonville Center
Fri 03:15:03 PM 30.4892 -81.7742 358° North 452 520 31,000  Level Jacksonville Center
Fri 03:16:03 PM 30.6208 -81.7894 354° North 457 526 31,000  Level Jacksonville Center
Fri 03:17:03 PM 30.7461 -81.7975 357° North 457 526 31,000  Level Jacksonville Center
Fri 03:18:03 PM 30.8636 -81.8422 342° North 455 524 31,000  Level Jacksonville Center
Fri 03:19:03 PM 30.9789 -81.8942 339° North 449 517 31,000  Level Jacksonville Center
Fri 03:20:03 PM 31.0939 -81.9489 338° Northwest 444 511 31,000  Level Jacksonville Center
Fri 03:21:03 PM 31.2092 -82.0036 338° Northwest 436 502 31,000  Level Jacksonville Center
Fri 03:22:03 PM 31.3267 -82.0608 337° Northwest 441 507 31,000  Level Jacksonville Center
Fri 03:23:03 PM 31.4458 -82.1206 337° Northwest 447 514 31,000  Level Jacksonville Center
Fri 03:24:03 PM 31.5633 -82.1758 338° Northwest 452 520 31,000  Level Jacksonville Center
Fri 03:25:03 PM 31.6908 -82.2308 340° North 451 519 31,000  Level Jacksonville Center
Fri 03:26:03 PM 31.8103 -82.2886 338° Northwest 451 519 31,000  Level Jacksonville Center
Fri 03:28:08 PM 32.0508 -82.4069 337° Northwest 468 539 31,000  Level Atlanta Center
Fri 03:29:08 PM 32.1664 -82.4611 338° Northwest 456 525 31,000 450 Level Atlanta Center
Fri 03:30:08 PM 32.2861 -82.5181 338° Northwest 456 525 31,900 500 Climbing Atlanta Center
Fri 03:31:08 PM 32.4039 -82.5800 336° Northwest 456 525 32,000 50 Climbing Atlanta Center
Fri 03:32:08 PM 32.5214 -82.6372 338° Northwest 456 525 32,000  Level Atlanta Center
Fri 03:33:08 PM 32.6389 -82.6894 339° North 456 525 32,000  Level Atlanta Center
Fri 03:34:08 PM 32.7583 -82.7519 336° Northwest 456 525 32,000  Level Atlanta Center
Fri 03:35:08 PM 32.8758 -82.8094 338° Northwest 456 525 32,000  Level Atlanta Center
Fri 03:36:08 PM 32.9914 -82.8700 336° Northwest 456 525 32,000  Level Atlanta Center
Fri 03:37:08 PM 33.1086 -82.9253 338° Northwest 456 525 32,000  Level Atlanta Center
Fri 03:38:08 PM 33.2408 -82.9883 338° Northwest 456 525 32,000  Level Atlanta Center
Fri 03:39:08 PM 33.3519 -83.0464 336° Northwest 454 522 32,000  Level Atlanta Center
Fri 03:40:08 PM 33.4714 -83.1050 338° Northwest 448 516 32,000  Level Atlanta Center
Fri 03:41:08 PM 33.5867 -83.1636 337° Northwest 448 516 32,000  Level Atlanta Center
Fri 03:42:08 PM 33.6997 -83.2197 338° Northwest 442 509 32,000  Level Atlanta Center
Fri 03:43:08 PM 33.8128 -83.2761 337° Northwest 442 509 32,000  Level Atlanta Center
Fri 03:44:08 PM 33.9278 -83.3353 337° Northwest 437 503 32,000  Level Atlanta Center
Fri 03:45:08 PM 34.0431 -83.3919 338° Northwest 442 509 32,000  Level Atlanta Center
Fri 03:46:08 PM 34.1561 -83.4514 336° Northwest 442 509 32,000  Level Atlanta Center
Fri 03:47:08 PM 34.2753 -83.5108 338° Northwest 442 509 32,000  Level Atlanta Center
Fri 03:48:08 PM 34.3736 -83.5606 337° Northwest 442 509 32,000  Level Atlanta Center
Fri 03:49:08 PM 34.4906 -83.6231 336° Northwest 442 509 32,000  Level Atlanta Center
Fri 03:50:08 PM 34.6056 -83.6831 337° Northwest 442 509 32,000  Level Atlanta Center
Fri 03:51:08 PM 34.7225 -83.7431 337° Northwest 442 509 32,000  Level Atlanta Center
Fri 03:53:08 PM 34.9503 -83.8639 337° Northwest 442 509 32,000  Level Atlanta Center
Fri 03:54:08 PM 35.0653 -83.9219 338° Northwest 437 503 32,000  Level Atlanta Center
Fri 03:55:08 PM 35.1800 -83.9828 337° Northwest 437 503 32,000  Level Atlanta Center
Fri 03:56:08 PM 35.2928 -84.0439 336° Northwest 437 503 32,000  Level Atlanta Center
Fri 03:57:08 PM 35.4094 -84.1025 338° Northwest 437 503 32,000  Level Atlanta Center
Fri 03:58:08 PM 35.5242 -84.1639 336° Northwest 442 509 32,000  Level Atlanta Center
Fri 03:59:08 PM 35.6389 -84.2253 336° Northwest 442 509 32,000  Level Atlanta Center
Fri 04:00:08 PM 35.7536 -84.2844 337° Northwest 442 509 32,000  Level Atlanta Center
Fri 04:01:08 PM 35.8661 -84.3436 337° Northwest 437 503 32,000  Level Atlanta Center
Fri 04:02:08 PM 35.9931 -84.4133 336° Northwest 443 510 32,000  Level Atlanta Center
Fri 04:03:46 PM 36.1789 -84.5114 337° Northwest 450 518 32,000  Level Indianapolis Center
Fri 04:04:48 PM 36.2925 -84.5731 336° Northwest 451 519 32,000  Level Indianapolis Center
Fri 04:05:50 PM 36.4064 -84.6347 336° Northwest 450 518 32,000  Level Indianapolis Center
Fri 04:06:52 PM 36.5211 -84.6972 336° Northwest 451 519 32,000  Level Indianapolis Center
Fri 04:07:54 PM 36.6356 -84.7586 337° Northwest 448 516 32,000  Level Indianapolis Center
Fri 04:08:56 PM 36.7744 -84.8353 336° Northwest 455 524 32,000  Level Indianapolis Center
Fri 04:09:58 PM 36.8908 -84.9006 336° Northwest 457 526 32,000  Level Indianapolis Center
Fri 04:11:00 PM 37.0064 -84.9633 337° Northwest 454 522 32,000  Level Indianapolis Center
Fri 04:12:02 PM 37.1214 -85.0258 337° Northwest 460 529 32,000  Level Indianapolis Center
Fri 04:13:04 PM 37.2594 -85.1022 336° Northwest 463 533 32,000  Level Indianapolis Center
Fri 04:14:06 PM 37.3778 -85.1692 336° Northwest 463 533 32,000  Level Indianapolis Center
Fri 04:15:08 PM 37.4964 -85.2356 336° Northwest 464 534 32,000  Level Indianapolis Center
Fri 04:16:10 PM 37.6128 -85.3022 336° Northwest 460 529 32,000  Level Indianapolis Center
Fri 04:17:12 PM 37.7294 -85.3678 336° Northwest 457 526 32,000  Level Indianapolis Center
Fri 04:18:14 PM 37.8406 -85.4289 337° Northwest 459 528 32,000  Level Indianapolis Center
Fri 04:19:16 PM 37.9814 -85.5072 336° Northwest 458 527 32,000  Level Indianapolis Center
Fri 04:20:18 PM 38.0967 -85.5731 336° Northwest 457 526 32,000  Level Indianapolis Center
Fri 04:21:20 PM 38.2131 -85.6403 336° Northwest 458 527 32,000  Level Indianapolis Center
Fri 04:22:22 PM 38.3286 -85.7094 335° Northwest 459 528 32,000  Level Indianapolis Center
Fri 04:23:24 PM 38.4447 -85.7781 335° Northwest 459 528 32,000  Level Indianapolis Center
Fri 04:24:26 PM 38.5594 -85.8461 335° Northwest 457 526 32,000  Level Indianapolis Center
Fri 04:25:28 PM 38.6744 -85.9144 335° Northwest 456 525 32,000  Level Indianapolis Center
Fri 04:26:30 PM 38.8128 -85.9967 335° Northwest 458 527 32,000  Level Indianapolis Center
Fri 04:27:32 PM 38.9289 -86.0667 335° Northwest 453 521 32,000  Level Indianapolis Center
Fri 04:28:34 PM 39.0433 -86.1353 335° Northwest 453 521 32,000  Level Indianapolis Center
Fri 04:29:35 PM 39.1581 -86.2044 335° Northwest 454 522 32,000 -49 Level Indianapolis Center
Fri 04:30:37 PM 39.2731 -86.2731 335° Northwest 455 524 31,900 -774 Descending Indianapolis Center
Fri 04:31:39 PM 39.3875 -86.3439 334° Northwest 456 525 30,400 -919 Descending Indianapolis Center
Fri 04:32:41 PM 39.5036 -86.4144 335° Northwest 457 526 30,000 -194 Descending Indianapolis Center
Fri 04:33:43 PM 39.6194 -86.4858 335° Northwest 455 524 30,000  Level Indianapolis Center
Fri 04:34:45 PM 39.7606 -86.5725 335° Northwest 458 527 30,000 -532 Level Indianapolis Center
Fri 04:35:47 PM 39.8789 -86.6417 336° Northwest 459 528 28,900 -968 Descending Indianapolis Center
Fri 04:36:49 PM 39.9972 -86.7078 337° Northwest 461 531 28,000 -435 Descending Indianapolis Center
Fri 04:37:51 PM 40.1144 -86.7736 337° Northwest 458 527 28,000  Level Indianapolis Center
Fri 04:38:53 PM 40.2292 -86.8400 336° Northwest 453 521 28,000  Level Indianapolis Center
Fri 04:39:55 PM 40.3444 -86.9067 336° Northwest 452 520 28,000  Level Indianapolis Center
Fri 04:40:57 PM 40.4586 -86.9728 336° Northwest 449 517 28,000  Level Indianapolis Center
Fri 04:41:57 PM 40.5719 -87.0392 336° Northwest 449 517 28,000  Level Chicago Center
Fri 04:42:59 PM 40.6886 -87.1058 337° Northwest 446 513 28,000  Level Chicago Center
Fri 04:44:01 PM 40.8242 -87.1847 336° Northwest 447 514 28,000  Level Chicago Center
Fri 04:45:04 PM 40.9367 -87.2503 336° Northwest 447 514 28,000  Level Chicago Center
Fri 04:46:06 PM 41.0478 -87.3175 335° Northwest 442 509 28,000  Level Chicago Center
Fri 04:47:08 PM 41.1708 -87.3492 349° North 458 527 28,000 -290 Level Chicago Center
Fri 04:48:10 PM 41.3231 -87.3481 360° North 462 532 27,400 -871 Descending Chicago Center
Fri 04:49:12 PM 41.4461 -87.3481 360° North 451 519 26,200 -1,161 Descending Chicago Center
Fri 04:50:14 PM 41.5669 -87.3492 360° North 443 510 25,000 -1,065 Descending Chicago Center
Fri 04:51:16 PM 41.6858 -87.3489 360° North 437 503 24,000 -774 Descending Chicago Center
Fri 04:52:18 PM 41.8039 -87.3514 359° North 431 496 23,400 -1,161 Descending Chicago Center
Fri 04:53:20 PM 41.9422 -87.3506 360° North 423 487 21,600 -1,597 Descending Chicago Center
Fri 04:54:22 PM 42.0531 -87.3508 360° North 409 471 20,100 -912 Descending Chicago Center
Fri 04:55:25 PM 42.1597 -87.3483 North 392 451 19,700 -864 Descending Chicago Center
Fri 04:56:27 PM 42.2689 -87.3489 360° North 394 453 18,300 -1,645 Descending Chicago Center
Fri 04:57:29 PM 42.3772 -87.3486 360° North 382 440 16,300 -2,516 Descending Chicago Center
Fri 04:58:31 PM 42.4819 -87.3478 360° North 377 434 13,100 -2,496 Descending Chicago Center
Fri 04:59:34 PM 42.6050 -87.3489 360° North 366 421 11,100 -1,440 Descending Chicago Center
Fri 05:00:36 PM 42.7056 -87.3517 359° North 364 419 10,100 -532 Descending Chicago Center
Fri 05:01:38 PM 42.7644 -87.4542 308° West 342 394 10,000 -726 Descending Chicago Center
Fri 05:02:40 PM 42.7950 -87.5539 293° West 288 331 8,600 -1,440 Descending Chicago Center
Fri 05:03:43 PM 42.8225 -87.6511 291° West 276 318 7,000 -768 Descending Chicago Center
Fri 05:04:45 PM 42.8508 -87.7478 292° West 235 270 7,000  Level Chicago Center
Fri 05:05:47 PM 42.8742 -87.8297 291° West 228 262 7,000 -48 Level Chicago Center
Fri 05:06:49 PM 42.8567 -87.9114 254° West 222 255 6,900 -242 Descending Chicago Center
Fri 05:07:51 PM 42.8356 -87.9911 250° West 223 257 6,500 -968 Descending Chicago Center
Fri 05:08:53 PM 42.8125 -88.0678 248° West 222 255 4,900 -1,258 Descending Chicago Center
Fri 05:09:55 PM 42.7897 -88.1436 248° West 218 251 3,900 -1,065 Descending Chicago Center
Fri 05:10:57 PM 42.8353 -88.2139 311° West 229 264 2,700 -581 Descending Chicago Center
Fri 05:11:59 PM 42.8731 -88.1797 34° Northeast 208 239 2,700  Level Chicago Center
Fri 05:13:01 PM 42.8883 -88.1206 71° East 178 205 2,700  Level Chicago Center
Fri 05:14:03 PM 42.9039 -88.0600 71° East 171 197 2,700 -331 Level Chicago Center
Fri 05:15:08 PM 42.9167 -88.0000 74° East 144 166 2,000 -624 Descending KMKE
Fri 05:16:08 PM 42.9333 -87.9500 66° East 118 136 1,400 -600 Descending KMKE

Login

Don't have an account? Register now (free) for customized features, flight alerts, and more!